Time;durP1;ratioP1;P1;durP2;ratioP2;P2;SDS_P1;SDS_P2;PMS_P1;PMS_P2;Temp;Humidity;BMP_temperature;BMP_pressure;BME280_temperature;BME280_humidity;BME280_pressure;Samples;Min_cycle;Max_cycle;Signal;HPM_P1;HPM_P2
2021/06/08 00:00:11;;;;;;;19.90;17.52;;;15.80;92.50;;;;;;5052026;28;20109;-79
2021/06/08 00:02:37;;;;;;;20.17;17.95;;;15.80;92.40;;;;;;5026023;28;20558;-81
2021/06/08 00:05:02;;;;;;;20.65;18.52;;;15.80;92.60;;;;;;5044462;28;20128;-79
2021/06/08 00:07:28;;;;;;;20.70;17.85;;;15.80;92.80;;;;;;5050333;28;20496;-80
2021/06/08 00:09:54;;;;;;;18.55;16.40;;;15.80;92.60;;;;;;5041130;28;20066;-79
2021/06/08 00:12:20;;;;;;;19.30;17.30;;;15.80;92.10;;;;;;5035077;28;20829;-80
2021/06/08 00:14:46;;;;;;;19.17;16.42;;;15.80;92.10;;;;;;5054114;28;20347;-81
2021/06/08 00:17:11;;;;;;;18.92;16.15;;;15.90;92.20;;;;;;5040743;28;20039;-81
2021/06/08 00:19:37;;;;;;;18.63;16.65;;;15.80;92.20;;;;;;5052020;28;20095;-80
2021/06/08 00:22:03;;;;;;;19.77;17.00;;;15.80;92.20;;;;;;5039328;28;20085;-81
2021/06/08 00:24:29;;;;;;;20.75;17.85;;;15.80;92.40;;;;;;5035985;28;20157;-80
2021/06/08 00:26:54;;;;;;;20.48;17.33;;;15.80;92.70;;;;;;5059110;28;20127;-80
2021/06/08 00:29:20;;;;;;;19.30;16.73;;;15.80;92.60;;;;;;5043054;28;20027;-82
2021/06/08 00:31:46;;;;;;;19.08;17.08;;;15.80;92.50;;;;;;5051743;28;20720;-81
2021/06/08 00:34:11;;;;;;;18.85;16.95;;;15.80;92.60;;;;;;5025521;28;20056;-79
2021/06/08 00:36:37;;;;;;;17.73;15.27;;;15.90;92.00;;;;;;5034191;28;20737;-81
2021/06/08 00:39:03;;;;;;;17.73;15.43;;;16.00;91.40;;;;;;5058783;28;20023;-81
2021/06/08 00:41:36;;;;;;;17.95;16.02;;;15.90;91.60;;;;;;5053468;28;20025;-80
2021/06/08 00:44:05;;;;;;;22.30;16.15;;;16.00;91.80;;;;;;5042648;28;20304;-80
2021/06/08 00:46:31;;;;;;;17.13;15.32;;;16.00;91.20;;;;;;5042360;28;20063;-79
2021/06/08 00:48:57;;;;;;;21.50;16.38;;;16.10;90.70;;;;;;5055584;28;20028;-81
2021/06/08 00:51:22;;;;;;;20.77;16.45;;;16.10;90.50;;;;;;5057247;28;20032;-80
2021/06/08 00:53:48;;;;;;;17.30;14.85;;;16.10;91.30;;;;;;5040839;28;20348;-80
2021/06/08 00:56:14;;;;;;;25.42;17.02;;;16.10;91.20;;;;;;5053011;28;20031;-82
2021/06/08 00:58:39;;;;;;;19.83;17.73;;;16.00;91.70;;;;;;5041431;28;20508;-80
2021/06/08 01:01:05;;;;;;;25.80;18.67;;;16.00;92.10;;;;;;5042183;28;20174;-79
2021/06/08 01:03:32;;;;;;;21.77;17.67;;;15.90;92.20;;;;;;5051890;28;20029;-80
2021/06/08 01:05:58;;;;;;;22.20;18.63;;;15.90;92.10;;;;;;5054018;28;20801;-80
2021/06/08 01:08:24;;;;;;;19.23;16.33;;;15.80;92.50;;;;;;5052541;28;20029;-80
2021/06/08 01:10:50;;;;;;;20.83;17.40;;;15.80;92.30;;;;;;5051798;28;20024;-81
2021/06/08 01:13:16;;;;;;;19.70;17.60;;;15.90;92.00;;;;;;5043464;28;20439;-80
2021/06/08 01:15:41;;;;;;;25.75;18.38;;;15.90;92.40;;;;;;5053687;28;20043;-79
2021/06/08 01:18:07;;;;;;;20.08;17.17;;;15.90;92.40;;;;;;5056984;28;20031;-81
2021/06/08 01:20:32;;;;;;;19.60;17.50;;;15.90;92.10;;;;;;5020467;28;20032;-80
2021/06/08 01:22:58;;;;;;;21.23;16.55;;;15.90;92.20;;;;;;5055500;28;20044;-79
2021/06/08 01:25:24;;;;;;;19.92;17.73;;;15.90;92.50;;;;;;5044509;28;20143;-80
2021/06/08 01:27:50;;;;;;;23.85;19.13;;;15.90;92.50;;;;;;5059447;28;20534;-81
2021/06/08 01:30:16;;;;;;;22.20;19.50;;;15.80;92.80;;;;;;5043912;28;20089;-81
2021/06/08 01:32:42;;;;;;;19.05;16.52;;;15.30;92.40;;;;;;5028229;28;20153;-80
2021/06/08 01:35:09;;;;;;;19.77;17.45;;;15.80;92.50;;;;;;5026827;28;20021;-80
2021/06/08 01:37:35;;;;;;;21.70;17.65;;;15.80;92.40;;;;;;5043824;28;20028;-79
2021/06/08 01:40:01;;;;;;;19.00;16.25;;;15.80;92.60;;;;;;5057037;28;20082;-81
2021/06/08 01:42:27;;;;;;;21.95;19.25;;;15.80;92.40;;;;;;5038341;28;20024;-80
2021/06/08 01:44:52;;;;;;;25.88;18.85;;;15.70;92.80;;;;;;5045173;28;20021;-80
2021/06/08 01:47:18;;;;;;;20.58;18.40;;;15.70;92.90;;;;;;5054535;28;20508;-79
2021/06/08 01:49:44;;;;;;;22.60;18.23;;;15.60;92.90;;;;;;5044498;28;20048;-81
2021/06/08 01:52:41;;;;;;;21.23;18.25;;;15.60;92.90;;;;;;5044296;28;20105;-81
2021/06/08 01:55:15;;;;;;;22.45;18.88;;;15.50;92.90;;;;;;5040422;28;20542;-78
2021/06/08 01:57:45;;;;;;;24.83;20.90;;;15.50;92.90;;;;;;5042198;28;20020;-79
2021/06/08 02:00:18;;;;;;;21.30;18.10;;;15.40;92.90;;;;;;5061885;28;20024;-80
2021/06/08 02:03:08;;;;;;;22.23;19.75;;;15.30;92.90;;;;;;5057980;28;20123;-81
2021/06/08 02:06:06;;;;;;;23.27;20.27;;;15.20;92.80;;;;;;5057921;28;20091;-78
2021/06/08 02:08:53;;;;;;;27.77;21.20;;;15.30;93.00;;;;;;5043469;28;20043;-82
2021/06/08 02:11:31;;;;;;;26.92;22.23;;;14.90;93.10;;;;;;5054916;28;20027;-79
2021/06/08 02:14:08;;;;;;;28.92;21.58;;;14.80;93.20;;;;;;5061592;28;20029;-79
2021/06/08 02:16:36;;;;;;;23.13;18.88;;;14.70;93.20;;;;;;5044658;28;20431;-79
2021/06/08 02:19:03;;;;;;;24.23;19.88;;;14.60;93.10;;;;;;5042457;28;20028;-79
2021/06/08 02:21:30;;;;;;;27.15;20.83;;;14.60;93.50;;;;;;5045073;28;20024;-80
2021/06/08 02:23:56;;;;;;;27.08;21.42;;;14.40;93.40;;;;;;5044466;28;20048;-79
2021/06/08 02:26:23;;;;;;;27.40;22.45;;;14.30;93.50;;;;;;5027905;28;20486;-79
2021/06/08 02:28:49;;;;;;;28.10;21.88;;;14.30;93.40;;;;;;5061471;28;20060;-79
2021/06/08 02:31:15;;;;;;;27.88;21.63;;;14.20;93.60;;;;;;5042890;28;20462;-80
2021/06/08 02:33:40;;;;;;;27.58;23.23;;;14.20;93.70;;;;;;5053607;28;20595;-79
2021/06/08 02:36:06;;;;;;;27.75;22.25;;;14.10;93.90;;;;;;5055722;28;20098;-79
2021/06/08 02:38:33;;;;;;;26.13;21.80;;;14.00;93.80;;;;;;5043112;28;20689;-79
2021/06/08 02:40:59;;;;;;;24.42;20.95;;;14.00;93.80;;;;;;5026720;28;20043;-78
2021/06/08 02:43:25;;;;;;;25.83;21.75;;;13.90;93.80;;;;;;5044182;28;20108;-80
2021/06/08 02:45:51;;;;;;;29.30;22.83;;;13.90;93.80;;;;;;5055137;28;20368;-80
2021/06/08 02:48:17;;;;;;;29.58;21.88;;;13.80;93.90;;;;;;5055755;28;20032;-79
2021/06/08 02:50:45;;;;;;;25.85;21.35;;;13.70;93.90;;;;;;5055691;28;20081;-80
2021/06/08 02:53:27;;;;;;;27.13;22.02;;;13.70;93.70;;;;;;5043920;28;20705;-81
2021/06/08 02:55:54;;;;;;;24.25;21.60;;;13.70;93.90;;;;;;5057943;28;20043;-79
2021/06/08 02:58:20;;;;;;;24.00;20.52;;;13.60;93.90;;;;;;5043354;28;20176;-79
2021/06/08 03:00:46;;;;;;;25.23;21.02;;;13.60;93.80;;;;;;5041197;28;20016;-79
2021/06/08 03:03:14;;;;;;;27.08;22.10;;;13.50;93.80;;;;;;5023880;28;20322;-80
2021/06/08 03:05:54;;;;;;;28.73;21.80;;;13.50;93.80;;;;;;5052249;28;20032;-78
2021/06/08 03:08:33;;;;;;;29.33;23.02;;;13.50;93.80;;;;;;5027357;28;20206;-80
2021/06/08 03:11:02;;;;;;;28.15;22.73;;;13.50;93.90;;;;;;5042362;28;20787;-79
2021/06/08 03:13:28;;;;;;;32.65;23.60;;;13.50;93.70;;;;;;5042848;28;20039;-78
2021/06/08 03:15:58;;;;;;;29.95;23.80;;;13.50;93.90;;;;;;5025398;28;20016;-80
2021/06/08 03:18:28;;;;;;;32.22;23.10;;;13.50;93.90;;;;;;5042672;28;20048;-82
2021/06/08 03:21:10;;;;;;;32.17;24.27;;;13.40;93.60;;;;;;5029833;28;20036;-82
2021/06/08 03:23:39;;;;;;;30.02;23.13;;;13.40;93.70;;;;;;5056634;28;20085;-81
2021/06/08 03:26:05;;;;;;;29.13;21.88;;;13.40;93.90;;;;;;5037804;28;20025;-80
2021/06/08 03:28:31;;;;;;;32.17;23.60;;;13.40;94.00;;;;;;5043142;28;20025;-79
2021/06/08 03:30:57;;;;;;;32.85;24.65;;;13.40;93.80;;;;;;5040869;28;20342;-80
2021/06/08 03:33:22;;;;;;;28.60;23.13;;;13.30;93.80;;;;;;5041397;28;20702;-81
2021/06/08 03:35:49;;;;;;;30.60;24.55;;;13.40;93.80;;;;;;5041745;28;20033;-80
2021/06/08 03:38:15;;;;;;;29.35;22.90;;;13.40;93.60;;;;;;5041676;28;20078;-81
2021/06/08 03:40:41;;;;;;;31.38;24.50;;;13.30;93.60;;;;;;5026431;28;20028;-81
2021/06/08 03:43:07;;;;;;;28.70;21.92;;;13.30;93.70;;;;;;5052327;28;20024;-82
2021/06/08 03:45:32;;;;;;;25.85;21.77;;;13.30;93.60;;;;;;5055618;28;20028;-82
2021/06/08 03:47:58;;;;;;;27.67;21.48;;;13.30;93.60;;;;;;5042958;28;20477;-81
2021/06/08 03:50:24;;;;;;;24.58;20.42;;;13.40;93.50;;;;;;5040315;28;20393;-80
2021/06/08 03:52:50;;;;;;;24.67;21.27;;;13.40;93.40;;;;;;5046570;28;20029;-81
2021/06/08 03:55:26;;;;;;;24.83;20.38;;;13.40;93.40;;;;;;5041598;28;20024;-79
2021/06/08 03:57:54;;;;;;;26.00;21.42;;;13.40;93.30;;;;;;5053855;28;20040;-79
2021/06/08 04:00:24;;;;;;;30.75;21.13;;;13.50;93.40;;;;;;5044296;28;20055;-80
2021/06/08 04:02:50;;;;;;;26.00;21.35;;;13.60;93.40;;;;;;5027275;28;20027;-79
2021/06/08 04:05:16;;;;;;;26.38;20.65;;;13.60;93.20;;;;;;5042250;28;20032;-82
2021/06/08 04:07:46;;;;;;;24.15;20.75;;;13.80;93.20;;;;;;5026659;28;20028;-82
2021/06/08 04:10:21;;;;;;;26.48;20.08;;;14.00;93.00;;;;;;5055609;28;20074;-80
2021/06/08 04:12:48;;;;;;;26.15;20.98;;;14.10;92.90;;;;;;5038726;28;20048;-80
2021/06/08 04:15:13;;;;;;;22.83;19.85;;;14.40;92.80;;;;;;5042851;28;20477;-80
2021/06/08 04:17:39;;;;;;;25.05;19.70;;;14.50;92.70;;;;;;5053153;28;20086;-80
2021/06/08 04:20:07;;;;;;;23.52;20.35;;;14.80;92.10;;;;;;5055924;28;20461;-78
2021/06/08 04:22:34;;;;;;;22.77;19.17;;;14.90;92.20;;;;;;5043250;28;20017;-79
2021/06/08 04:24:59;;;;;;;24.42;20.00;;;15.10;92.40;;;;;;5035574;28;20029;-80
2021/06/08 04:27:27;;;;;;;23.48;18.52;;;15.20;92.00;;;;;;5043201;28;20425;-80
2021/06/08 04:29:53;;;;;;;21.77;18.90;;;15.50;91.40;;;;;;5042871;28;20043;-80
2021/06/08 04:32:18;;;;;;;24.70;20.00;;;15.50;92.00;;;;;;5059919;28;20029;-79
2021/06/08 04:34:48;;;;;;;22.02;18.25;;;15.10;91.20;;;;;;5055684;28;20468;-79
2021/06/08 04:37:14;;;;;;;21.08;17.75;;;15.90;90.70;;;;;;5054036;28;20055;-80
2021/06/08 04:39:39;;;;;;;19.27;16.95;;;15.90;90.80;;;;;;5061463;28;20477;-79
2021/06/08 04:42:06;;;;;;;20.55;17.50;;;16.10;87.70;;;;;;5049138;28;20052;-79
2021/06/08 04:44:32;;;;;;;21.10;16.98;;;16.20;90.20;;;;;;5059256;28;20113;-79
2021/06/08 04:46:58;;;;;;;22.88;17.20;;;16.30;90.10;;;;;;5058238;28;20111;-79
2021/06/08 04:49:23;;;;;;;20.10;15.18;;;16.40;88.90;;;;;;5056783;28;20480;-80
2021/06/08 04:51:49;;;;;;;22.63;16.05;;;16.50;85.70;;;;;;5045197;28;20063;-81
2021/06/08 04:54:21;;;;;;;17.73;15.82;;;17.00;83.60;;;;;;5064023;28;20032;-79
2021/06/08 04:56:47;;;;;;;18.45;14.73;;;18.10;80.10;;;;;;5058175;28;20361;-82
2021/06/08 04:59:15;;;;;;;17.05;14.30;;;18.70;77.60;;;;;;5060128;28;20025;-83
2021/06/08 05:01:41;;;;;;;14.50;12.82;;;19.60;75.10;;;;;;5023837;28;20112;-80
2021/06/08 05:04:11;;;;;;;16.60;13.10;;;20.40;71.10;;;;;;5025235;28;20111;-80
2021/06/08 05:06:45;;;;;;;12.75;11.45;;;20.60;70.60;;;;;;5036629;28;20072;-77
2021/06/08 05:09:19;;;;;;;15.73;12.73;;;20.10;70.10;;;;;;5038297;28;20024;-78
2021/06/08 05:11:54;;;;;;;15.30;13.17;;;19.20;74.60;;;;;;5042346;28;20124;-80
2021/06/08 05:14:20;;;;;;;14.65;13.15;;;19.50;72.30;;;;;;5052068;28;20281;-78
2021/06/08 05:16:46;;;;;;;17.05;13.38;;;20.10;70.70;;;;;;5048283;28;20058;-79
2021/06/08 05:19:13;;;;;;;18.00;14.00;;;20.10;70.40;;;;;;5025169;28;20043;-80
2021/06/08 05:21:40;;;;;;;16.40;13.43;;;19.70;69.50;;;;;;5036083;28;20570;-78
2021/06/08 05:24:06;;;;;;;15.77;13.00;;;19.10;72.50;;;;;;5038809;28;20588;-81
2021/06/08 05:26:31;;;;;;;18.27;14.65;;;18.60;75.70;;;;;;5024554;28;20465;-79
2021/06/08 05:28:57;;;;;;;23.38;14.60;;;18.50;78.50;;;;;;5051172;28;20059;-78
2021/06/08 05:31:23;;;;;;;18.70;15.52;;;18.40;77.40;;;;;;5042412;28;20027;-78
2021/06/08 05:33:48;;;;;;;17.40;15.50;;;18.40;77.30;;;;;;5024194;28;20020;-76
2021/06/08 05:36:14;;;;;;;21.75;15.77;;;18.30;79.80;;;;;;5040288;28;20024;-77
2021/06/08 05:38:43;;;;;;;17.75;15.95;;;18.40;78.50;;;;;;5051686;28;20028;-76
2021/06/08 05:41:10;;;;;;;19.38;15.57;;;18.20;79.10;;;;;;5039781;28;20506;-75
2021/06/08 05:43:36;;;;;;;20.92;16.30;;;18.10;80.80;;;;;;5038456;28;20036;-76
2021/06/08 05:46:05;;;;;;;19.85;16.90;;;18.20;79.60;;;;;;5048361;28;20664;-75
2021/06/08 05:48:31;;;;;;;19.08;16.27;;;18.00;80.30;;;;;;5050424;28;20029;-76
2021/06/08 05:50:57;;;;;;;24.58;17.38;;;17.90;80.00;;;;;;5037598;28;20029;-77
2021/06/08 05:53:23;;;;;;;24.83;18.05;;;18.10;79.90;;;;;;5038701;28;20028;-76
2021/06/08 05:55:50;;;;;;;25.48;17.27;;;18.30;80.50;;;;;;5039661;28;20658;-75
2021/06/08 05:58:16;;;;;;;25.65;18.63;;;18.30;79.10;;;;;;5055777;28;20033;-75
2021/06/08 06:00:41;;;;;;;26.92;20.00;;;18.50;78.10;;;;;;5041016;28;20590;-75
2021/06/08 06:03:07;;;;;;;23.33;17.88;;;18.50;78.80;;;;;;5053346;28;20489;-75
2021/06/08 06:05:36;;;;;;;25.42;20.27;;;18.40;79.60;;;;;;5050509;28;20354;-75
2021/06/08 06:08:04;;;;;;;27.13;20.10;;;18.40;80.40;;;;;;5021913;28;20108;-75
2021/06/08 06:10:29;;;;;;;24.65;18.25;;;18.60;80.80;;;;;;5052371;28;20737;-75
2021/06/08 06:12:57;;;;;;;23.27;18.80;;;18.60;81.20;;;;;;5055598;28;20044;-75
2021/06/08 06:15:23;;;;;;;23.95;17.25;;;18.60;80.20;;;;;;5022315;28;20020;-74
2021/06/08 06:17:50;;;;;;;25.77;17.70;;;18.60;80.70;;;;;;5054210;28;20047;-74
2021/06/08 06:20:15;;;;;;;23.75;18.70;;;18.50;80.60;;;;;;5055946;28;20027;-75
2021/06/08 06:22:41;;;;;;;33.47;20.80;;;18.70;80.80;;;;;;5052206;28;20806;-75
2021/06/08 06:25:11;;;;;;;24.75;18.27;;;18.60;82.10;;;;;;5053215;28;20016;-75
2021/06/08 06:27:40;;;;;;;18.58;16.63;;;18.50;80.20;;;;;;5042666;28;20051;-75
2021/06/08 06:30:07;;;;;;;25.33;18.00;;;18.70;80.20;;;;;;5051687;28;20131;-75
2021/06/08 06:32:33;;;;;;;22.13;17.60;;;18.80;80.40;;;;;;5037601;28;20024;-75
2021/06/08 06:35:08;;;;;;;28.52;19.33;;;18.70;80.50;;;;;;5053820;28;20103;-75
2021/06/08 06:37:35;;;;;;;24.20;18.48;;;18.70;80.80;;;;;;5025467;28;20091;-75
2021/06/08 06:40:01;;;;;;;27.75;17.77;;;18.70;80.40;;;;;;5040787;28;20051;-75
2021/06/08 06:42:30;;;;;;;29.38;19.40;;;18.80;81.50;;;;;;5041713;28;20032;-75
2021/06/08 06:44:55;;;;;;;27.85;20.10;;;18.90;82.00;;;;;;5054415;28;20028;-75
2021/06/08 06:47:21;;;;;;;23.15;18.45;;;19.00;80.20;;;;;;5051764;28;20050;-76
2021/06/08 06:49:47;;;;;;;29.80;19.65;;;19.30;79.50;;;;;;5050003;28;20107;-77
2021/06/08 06:52:12;;;;;;;24.00;18.73;;;19.50;79.00;;;;;;5040390;28;20028;-76
2021/06/08 06:54:38;;;;;;;21.98;19.15;;;19.90;76.60;;;;;;5039625;28;20036;-77
2021/06/08 06:57:04;;;;;;;33.55;20.35;;;20.10;76.80;;;;;;5041591;28;20427;-76
2021/06/08 06:59:30;;;;;;;25.65;21.40;;;20.20;76.00;;;;;;5051206;28;20069;-77
2021/06/08 07:01:56;;;;;;;23.88;20.27;;;20.30;76.30;;;;;;5038811;28;20021;-76
2021/06/08 07:04:23;;;;;;;24.48;20.13;;;20.80;73.30;;;;;;5054443;28;20016;-76
2021/06/08 07:06:48;;;;;;;25.88;20.73;;;21.40;69.30;;;;;;5021554;28;20033;-76
2021/06/08 07:09:15;;;;;;;27.42;20.45;;;21.70;66.30;;;;;;5039323;28;20075;-76
2021/06/08 07:11:40;;;;;;;23.92;20.25;;;21.40;69.50;;;;;;5049188;28;20023;-78
2021/06/08 07:14:06;;;;;;;30.25;22.13;;;21.30;69.60;;;;;;5051708;28;20033;-77
2021/06/08 07:16:32;;;;;;;24.17;18.90;;;21.00;70.40;;;;;;5053882;28;20099;-76
2021/06/08 07:18:58;;;;;;;22.13;18.35;;;20.70;73.70;;;;;;5021574;28;20028;-76
2021/06/08 07:21:24;;;;;;;31.20;21.08;;;20.40;73.00;;;;;;5055508;28;20027;-76
2021/06/08 07:23:51;;;;;;;27.13;21.10;;;20.30;72.30;;;;;;5039210;28;20866;-77
2021/06/08 07:26:19;;;;;;;28.30;22.13;;;20.40;73.60;;;;;;5038957;28;20048;-77
2021/06/08 07:28:45;;;;;;;25.90;21.90;;;20.40;73.10;;;;;;5039323;28;20036;-77
2021/06/08 07:31:13;;;;;;;27.75;22.92;;;20.30;71.80;;;;;;5040275;28;20031;-78
2021/06/08 07:33:47;;;;;;;31.52;23.17;;;20.30;73.90;;;;;;5023461;28;20047;-76
2021/06/08 07:36:26;;;;;;;23.15;19.30;;;20.30;73.40;;;;;;5040999;28;20509;-76
2021/06/08 07:38:59;;;;;;;23.13;18.65;;;20.20;74.20;;;;;;5056502;28;20386;-77
2021/06/08 07:41:36;;;;;;;24.77;20.00;;;20.20;74.80;;;;;;5052109;28;20056;-78
2021/06/08 07:44:04;;;;;;;26.13;22.45;;;20.20;74.30;;;;;;5056941;28;20095;-77
2021/06/08 07:46:29;;;;;;;27.25;21.90;;;20.00;75.10;;;;;;5039437;28;20143;-76
2021/06/08 07:48:56;;;;;;;25.65;22.15;;;20.40;73.10;;;;;;5053185;28;20027;-77
2021/06/08 07:51:22;;;;;;;27.08;23.05;;;20.40;74.00;;;;;;5038798;28;20115;-77
2021/06/08 07:53:50;;;;;;;31.65;21.02;;;20.60;73.70;;;;;;5039804;28;20108;-78
2021/06/08 07:56:15;;;;;;;26.33;20.77;;;20.70;75.10;;;;;;5038643;28;20039;-78
2021/06/08 07:58:41;;;;;;;28.48;20.13;;;20.90;71.40;;;;;;5039274;28;20032;-79
2021/06/08 08:01:07;;;;;;;29.33;20.25;;;21.20;73.20;;;;;;5052630;28;20036;-77
2021/06/08 08:03:33;;;;;;;27.60;21.65;;;21.50;71.30;;;;;;5038255;28;20040;-77
2021/06/08 08:06:04;;;;;;;35.47;23.70;;;21.60;68.30;;;;;;5050296;28;20110;-77
2021/06/08 08:08:31;;;;;;;26.70;21.83;;;21.80;69.20;;;;;;5038949;28;20386;-77
2021/06/08 08:10:57;;;;;;;24.15;21.63;;;22.10;67.30;;;;;;5042641;28;20029;-77
2021/06/08 08:13:24;;;;;;;26.73;22.63;;;22.20;67.20;;;;;;5050800;28;20020;-77
2021/06/08 08:15:50;;;;;;;28.00;22.15;;;22.20;66.00;;;;;;5037161;28;20056;-77
2021/06/08 08:18:20;;;;;;;25.45;22.00;;;22.40;65.20;;;;;;5052764;28;20024;-78
2021/06/08 08:20:49;;;;;;;24.55;22.05;;;22.20;62.80;;;;;;5021401;28;20036;-78
2021/06/08 08:23:15;;;;;;;22.35;19.95;;;22.30;61.70;;;;;;5044959;28;20469;-78
2021/06/08 08:25:40;;;;;;;26.10;20.00;;;22.60;66.40;;;;;;5057811;28;20035;-77
2021/06/08 08:28:07;;;;;;;27.25;22.08;;;22.60;61.50;;;;;;5058963;28;20029;-78
2021/06/08 08:30:33;;;;;;;28.58;24.70;;;22.20;62.60;;;;;;5051531;28;20156;-77
2021/06/08 08:32:59;;;;;;;31.15;25.10;;;22.00;64.40;;;;;;5039501;28;20047;-78
2021/06/08 08:35:26;;;;;;;32.92;28.23;;;22.00;63.90;;;;;;5040147;28;20048;-77
2021/06/08 08:37:53;;;;;;;34.17;28.27;;;21.90;62.30;;;;;;5039971;28;20664;-77
2021/06/08 08:40:19;;;;;;;31.80;28.40;;;22.10;63.00;;;;;;5039031;28;20066;-78
2021/06/08 08:42:45;;;;;;;28.02;25.02;;;22.70;60.10;;;;;;5047028;28;20544;-75
2021/06/08 08:45:13;;;;;;;28.70;25.05;;;23.00;60.40;;;;;;5037822;28;20016;-76
2021/06/08 08:47:39;;;;;;;28.27;24.55;;;23.00;59.30;;;;;;5051947;28;20025;-76
2021/06/08 08:50:05;;;;;;;32.45;24.13;;;22.90;60.20;;;;;;5053840;28;20086;-77
2021/06/08 08:52:32;;;;;;;31.80;25.88;;;22.70;59.40;;;;;;5039845;28;20035;-76
2021/06/08 08:54:59;;;;;;;27.38;23.70;;;22.40;59.80;;;;;;5035737;28;20040;-77
2021/06/08 08:57:26;;;;;;;29.67;23.42;;;22.10;61.70;;;;;;5052390;28;20035;-76
2021/06/08 08:59:58;;;;;;;23.25;19.73;;;22.40;64.40;;;;;;5055589;28;20028;-76
2021/06/08 09:02:25;;;;;;;19.65;17.42;;;23.10;60.20;;;;;;5051169;28;20068;-76
2021/06/08 09:04:51;;;;;;;21.40;15.75;;;22.90;57.80;;;;;;5023835;28;20660;-76
2021/06/08 09:07:17;;;;;;;19.83;16.88;;;22.80;56.90;;;;;;5023014;28;20037;-75
2021/06/08 09:09:43;;;;;;;19.80;16.90;;;22.50;59.10;;;;;;5054518;28;20041;-76
2021/06/08 09:12:09;;;;;;;20.23;15.73;;;22.50;61.60;;;;;;5040517;28;20052;-75
2021/06/08 09:14:35;;;;;;;21.95;15.18;;;22.20;60.60;;;;;;5039792;28;20489;-75
2021/06/08 09:17:01;;;;;;;17.08;14.35;;;22.10;60.90;;;;;;5041627;28;20031;-76
2021/06/08 09:19:28;;;;;;;10.77;9.77;;;22.50;64.30;;;;;;5050504;28;20020;-76
2021/06/08 09:21:55;;;;;;;12.48;10.13;;;23.50;56.00;;;;;;5050855;28;20257;-76
2021/06/08 09:24:25;;;;;;;9.65;8.75;;;23.40;53.30;;;;;;5056147;28;20031;-75
2021/06/08 09:26:55;;;;;;;15.18;10.35;;;23.10;52.50;;;;;;5034798;28;20028;-75
2021/06/08 09:29:28;;;;;;;13.18;11.80;;;23.00;54.60;;;;;;5041306;28;20032;-76
2021/06/08 09:32:12;;;;;;;14.50;10.88;;;23.00;55.20;;;;;;5039488;28;20052;-76
2021/06/08 09:34:38;;;;;;;11.52;9.48;;;22.80;60.10;;;;;;5057219;28;20284;-76
2021/06/08 09:37:05;;;;;;;9.93;8.93;;;22.70;58.70;;;;;;5039531;28;20028;-76
2021/06/08 09:39:30;;;;;;;12.48;9.38;;;22.60;59.10;;;;;;5040963;28;20138;-76
2021/06/08 09:41:56;;;;;;;10.95;8.60;;;22.40;59.60;;;;;;5054226;28;20091;-76
2021/06/08 09:44:22;;;;;;;12.93;10.35;;;22.50;58.10;;;;;;5040861;28;20021;-76
2021/06/08 09:46:49;;;;;;;13.07;10.40;;;22.60;57.80;;;;;;5050759;28;20043;-74
2021/06/08 09:49:19;;;;;;;9.88;8.60;;;22.70;56.60;;;;;;5051919;28;20028;-75
2021/06/08 09:51:49;;;;;;;11.25;8.82;;;23.00;60.70;;;;;;5039625;28;20086;-77
2021/06/08 09:54:37;;;;;;;11.35;9.35;;;23.20;56.80;;;;;;5060777;28;20397;-75
2021/06/08 09:57:21;;;;;;;11.45;10.27;;;23.10;55.60;;;;;;5061209;28;20059;-76
2021/06/08 09:59:51;;;;;;;12.02;8.70;;;23.30;56.30;;;;;;5049093;28;20032;-75
2021/06/08 10:02:26;;;;;;;9.30;7.28;;;23.50;53.40;;;;;;5045826;28;20032;-75
2021/06/08 10:04:52;;;;;;;9.32;8.38;;;23.50;51.10;;;;;;5061380;28;20032;-75
2021/06/08 10:07:28;;;;;;;8.75;7.75;;;23.80;51.40;;;;;;5042861;28;20043;-76
2021/06/08 10:10:09;;;;;;;10.07;8.20;;;23.90;50.90;;;;;;5045381;28;20089;-76
2021/06/08 10:13:00;;;;;;;10.48;8.60;;;24.10;51.30;;;;;;5078865;28;20042;-76
2021/06/08 10:15:27;;;;;;;9.38;7.97;;;24.00;53.50;;;;;;5056037;28;20129;-76
2021/06/08 10:18:03;;;;;;;12.82;8.30;;;24.00;51.20;;;;;;5042219;28;20028;-77
2021/06/08 10:20:31;;;;;;;9.60;8.50;;;24.20;50.40;;;;;;5043572;28;20024;-76
2021/06/08 10:22:57;;;;;;;12.43;7.10;;;24.10;49.20;;;;;;5056367;28;20571;-76
2021/06/08 10:25:23;;;;;;;16.58;13.45;;;23.90;50.50;;;;;;5040066;28;20032;-77
2021/06/08 10:27:49;;;;;;;15.18;13.43;;;24.30;53.10;;;;;;5056334;28;20048;-76
2021/06/08 10:30:15;;;;;;;20.45;13.95;;;24.20;56.00;;;;;;5038345;28;20230;-77
2021/06/08 10:32:41;;;;;;;15.10;12.60;;;24.40;56.90;;;;;;5056562;28;20023;-77
2021/06/08 10:35:07;;;;;;;17.42;11.80;;;24.70;53.30;;;;;;5040258;28;20351;-77
2021/06/08 10:37:33;;;;;;;15.13;13.52;;;24.60;52.80;;;;;;5055332;28;20060;-78
2021/06/08 10:40:00;;;;;;;15.13;13.43;;;24.00;52.50;;;;;;5054206;28;20094;-77
2021/06/08 10:42:27;;;;;;;20.52;12.95;;;23.90;55.80;;;;;;5043061;28;20069;-77
2021/06/08 10:45:04;;;;;;;12.20;9.68;;;24.20;52.10;;;;;;5024328;28;20107;-77
2021/06/08 10:47:36;;;;;;;8.77;7.68;;;24.30;50.20;;;;;;5059377;28;20032;-77
2021/06/08 10:50:03;;;;;;;9.60;8.10;;;24.00;50.20;;;;;;5054988;28;20537;-77
2021/06/08 10:52:36;;;;;;;8.68;7.15;;;24.10;50.70;;;;;;5045016;28;20021;-76
2021/06/08 10:55:07;;;;;;;7.22;6.53;;;23.70;51.40;;;;;;5056112;28;20052;-77
2021/06/08 10:57:46;;;;;;;10.93;7.68;;;23.60;51.10;;;;;;5039495;28;20028;-77
2021/06/08 11:00:39;;;;;;;8.93;7.97;;;23.90;51.90;;;;;;5061437;28;20020;-78
2021/06/08 11:03:07;;;;;;;9.25;8.25;;;23.60;51.80;;;;;;5046911;28;20536;-77
2021/06/08 11:05:51;;;;;;;9.63;8.20;;;23.70;51.40;;;;;;5054171;28;20063;-76
2021/06/08 11:08:17;;;;;;;10.88;8.48;;;23.70;54.20;;;;;;5047961;28;20040;-77
2021/06/08 11:10:45;;;;;;;10.75;8.32;;;23.80;55.00;;;;;;5039562;28;20056;-77
2021/06/08 11:13:16;;;;;;;9.90;8.15;;;24.00;52.70;;;;;;5054206;28;20025;-76
2021/06/08 11:15:48;;;;;;;13.82;8.25;;;24.00;51.90;;;;;;5053863;28;20040;-77
2021/06/08 11:18:34;;;;;;;11.90;10.13;;;23.90;52.00;;;;;;5040176;28;20037;-78
2021/06/08 11:21:05;;;;;;;14.60;11.32;;;24.00;52.80;;;;;;5049310;28;20036;-78
2021/06/08 11:23:35;;;;;;;12.68;9.48;;;24.10;50.40;;;;;;5052649;28;20070;-76
2021/06/08 11:26:01;;;;;;;9.88;8.95;;;24.10;50.80;;;;;;5046275;28;20687;-77
2021/06/08 11:28:46;;;;;;;12.00;8.98;;;23.90;50.20;;;;;;5036807;28;20095;-76
2021/06/08 11:31:12;;;;;;;14.05;10.27;;;24.20;49.80;;;;;;5055324;28;20681;-79
2021/06/08 11:33:48;;;;;;;12.32;9.50;;;23.90;48.90;;;;;;5025263;28;20054;-78
2021/06/08 11:36:22;;;;;;;11.32;10.30;;;23.80;50.40;;;;;;5055416;28;20040;-76
2021/06/08 11:38:56;;;;;;;11.70;9.68;;;23.60;50.20;;;;;;5055462;28;20256;-77
2021/06/08 11:41:21;;;;;;;14.05;8.85;;;23.70;50.80;;;;;;5054610;28;20024;-77
2021/06/08 11:43:55;;;;;;;11.13;9.40;;;23.40;52.10;;;;;;5039400;28;20402;-77
2021/06/08 11:46:32;;;;;;;13.70;10.90;;;23.40;54.00;;;;;;5026714;28;20025;-77
2021/06/08 11:49:09;;;;;;;15.48;11.75;;;23.60;50.70;;;;;;5053198;28;20032;-76
2021/06/08 11:51:43;;;;;;;12.10;10.27;;;23.80;51.60;;;;;;5039981;28;20021;-77
2021/06/08 11:54:13;;;;;;;13.35;12.13;;;24.00;52.10;;;;;;5022703;28;20051;-76
2021/06/08 11:57:00;;;;;;;12.10;10.45;;;24.00;52.80;;;;;;5048778;28;20783;-77
2021/06/08 11:59:27;;;;;;;11.10;9.80;;;24.00;53.50;;;;;;5032320;28;20036;-76
2021/06/08 12:02:01;;;;;;;13.05;11.85;;;23.90;51.60;;;;;;5022349;28;20086;-77
2021/06/08 12:04:28;;;;;;;14.25;11.32;;;23.90;51.10;;;;;;5031607;28;20060;-77
2021/06/08 12:07:04;;;;;;;11.85;10.70;;;24.00;50.40;;;;;;5038364;28;20036;-76
2021/06/08 12:09:32;;;;;;;12.70;11.43;;;23.90;50.60;;;;;;5005016;28;20072;-77
2021/06/08 12:12:02;;;;;;;14.20;12.75;;;24.00;52.00;;;;;;5038289;28;20025;-76
2021/06/08 12:14:28;;;;;;;14.07;12.48;;;24.30;49.10;;;;;;5021289;28;20021;-76
2021/06/08 12:16:55;;;;;;;14.30;12.35;;;24.20;50.50;;;;;;5048007;28;20813;-76
2021/06/08 12:19:34;;;;;;;15.85;12.50;;;24.70;49.90;;;;;;5053190;28;20028;-76
2021/06/08 12:22:03;;;;;;;12.77;11.48;;;25.30;48.50;;;;;;5055113;28;20047;-75
2021/06/08 12:24:29;;;;;;;21.52;11.85;;;25.20;48.70;;;;;;5049482;28;20027;-77
2021/06/08 12:26:59;;;;;;;13.90;11.90;;;25.20;50.20;;;;;;5046716;28;20036;-79
2021/06/08 12:29:25;;;;;;;13.32;11.93;;;25.10;49.00;;;;;;5047758;28;20051;-77
2021/06/08 12:31:55;;;;;;;17.70;13.70;;;24.80;49.50;;;;;;5053153;28;20028;-78
2021/06/08 12:34:23;;;;;;;17.95;14.68;;;24.40;48.90;;;;;;5018970;28;20104;-78